Dulles, VA (20101)

12:54 AM EDT on June 21, 2018 (GMT -0400)
Washington Dulles International | | Change Station

Elev 312 ft 38.94 °N, 77.46 °W | Updated 2 minutes ago

Overcast
Overcast
70 °F
Feels Like 70 °F
N
5
Wind Variable Wind from SSW

Today
High -- | Low -- °F
--% Chance of Precip.
Yesterday
High -- | Low -- °F
Precip. -- in
Pressure 29.79 in
Visibility 10.0 miles
Clouds Few 800 ft
Scattered Clouds 10000 ft
Mostly Cloudy 15000 ft
Mostly Cloudy 18000 ft
Overcast 25000 ft
Dew Point 70 °F
Humidity 100%
Rainfall 0.00 in
Snow Depth Not available.
5:44 AM 8:38 PM
First Quarter, 58% visible
METAR KIAD 210452Z 20004KT 10SM FEW008 SCT100 BKN150 BKN180 OVC250 21/21 A2980 RMK AO2 RAE12 SLP087 P0000 T02110211 402890206
Pressure 29.79 in
Visibility 10.0 miles
Clouds Few 800 ft
Scattered Clouds 10000 ft
Mostly Cloudy 15000 ft
Mostly Cloudy 18000 ft
Overcast 25000 ft
Dew Point 70 °F
Humidity 100%
Rainfall 0.00 in
Snow Depth Not available.
5:44 AM 8:38 PM
First Quarter, 58% visible
METAR KIAD 210452Z 20004KT 10SM FEW008 SCT100 BKN150 BKN180 OVC250 21/21 A2980 RMK AO2 RAE12 SLP087 P0000 T02110211 402890206

Get Severe Weather Alerts

Thanks for signing up!

Be on the lookout for a verification email in your inbox.

You'll start receiving the daily forecast at 6 AM.

×

10-Day Weather Forecast

Almanac

Astronomy

Jun. 21, 2018 Rise Set
Actual Time
Civil Twilight
Nautical Twilight
Astronomical Twilight
Moon
Length of Visible Light
Length of Day
Tomorrow will be .
, % of the Moon is Illuminated

Today's Extremes

State Highs State Lows

Community

WunderPhotos

Category 6

Welcome to Category 6. This is the collective home for Weather Underground's featured writeups by Dr. Jeff Masters (right), Bob Henson (left), Chris Burt, and other regular contributors.

Nearby

Air Quality

  Air Quality AQ Index Pollutant
Not available.

Snow Depth

Station Depth Elevation

Earthquake Activity

City Distance Mag. Time & Date
Minimum magnitude displayed is 2.5.

Coastal Water Temperatures

Place Temperature

Stations

Nearby Weather Stations

Station Location Temp. Windchill Dew Point Humidity Wind Precip. Elev Updated Type
                   

Watches & Warnings

There are currently no watches in effect.